createdAt,value
2022-10-19T00:02:32.309Z,81.09
2022-10-19T00:05:05.718Z,80.87
2022-10-19T00:07:38.321Z,80.87
2022-10-19T00:10:12.476Z,80.60
2022-10-19T00:12:44.950Z,80.29
2022-10-19T00:15:17.617Z,80.63
2022-10-19T00:17:52.094Z,80.17
2022-10-19T00:20:24.562Z,80.51
2022-10-19T00:22:56.966Z,80.84
2022-10-19T00:25:30.958Z,81.11
2022-10-19T00:28:03.669Z,81.03
2022-10-19T00:30:37.515Z,81.38
2022-10-19T00:33:09.965Z,81.05
2022-10-19T00:35:42.805Z,80.80
2022-10-19T00:38:15.400Z,81.50
2022-10-19T00:40:49.682Z,81.50
2022-10-19T00:43:26.142Z,80.74
2022-10-19T00:45:58.672Z,80.55
2022-10-19T00:48:33.434Z,80.65
2022-10-19T00:51:05.857Z,80.96
2022-10-19T00:53:38.597Z,80.90
2022-10-19T00:56:15.511Z,80.54
2022-10-19T00:58:48.218Z,81.11
2022-10-19T01:01:23.947Z,81.07
2022-10-19T01:03:56.497Z,81.03
2022-10-19T01:06:30.264Z,80.75
2022-10-19T01:09:02.907Z,80.56
2022-10-19T01:11:46.938Z,81.41
2022-10-19T01:14:30.975Z,81.20
2022-10-19T01:17:14.406Z,81.38
2022-10-19T01:20:06.426Z,80.82
2022-10-19T01:22:53.727Z,80.60
2022-10-19T01:25:39.310Z,81.14
2022-10-19T01:28:31.895Z,81.31
2022-10-19T01:31:17.975Z,80.86
2022-10-19T01:33:59.094Z,80.50
2022-10-19T01:36:40.638Z,80.09
2022-10-19T01:39:19.500Z,80.47
2022-10-19T01:42:00.481Z,80.89
2022-10-19T01:44:43.107Z,80.71
2022-10-19T01:47:22.395Z,80.66
2022-10-19T01:49:58.389Z,80.88
2022-10-19T01:52:33.838Z,80.90
2022-10-19T01:55:09.815Z,81.39
2022-10-19T01:57:47.117Z,81.78
2022-10-19T02:00:23.371Z,81.73
2022-10-19T02:02:59.724Z,82.02
2022-10-19T02:05:33.903Z,82.00
2022-10-19T02:08:11.387Z,81.69
2022-10-19T02:11:04.431Z,81.82
2022-10-19T02:13:39.305Z,82.23
2022-10-19T02:16:16.527Z,82.09
2022-10-19T02:18:53.570Z,81.86
2022-10-19T02:21:26.965Z,81.87
2022-10-19T02:23:59.641Z,81.97
2022-10-19T02:26:32.436Z,81.81
2022-10-19T02:29:05.068Z,82.08
2022-10-19T02:31:38.197Z,81.95
2022-10-19T02:34:13.373Z,81.88
2022-10-19T02:36:45.931Z,81.83
2022-10-19T02:39:18.555Z,82.07
2022-10-19T02:41:56.825Z,82.37
2022-10-19T02:44:35.069Z,82.45
2022-10-19T02:47:13.580Z,82.33
2022-10-19T02:49:48.964Z,82.29
2022-10-19T02:52:21.513Z,82.25
2022-10-19T02:54:54.863Z,82.40
2022-10-19T02:57:27.334Z,82.11
2022-10-19T02:59:59.977Z,82.19
2022-10-19T03:02:32.626Z,82.18
2022-10-19T03:05:07.467Z,82.50
2022-10-19T03:07:39.944Z,82.18
2022-10-19T03:10:12.495Z,82.20
2022-10-19T03:12:44.978Z,81.96
2022-10-19T03:15:18.603Z,81.97
2022-10-19T03:17:53.476Z,82.53
2022-10-19T03:20:27.426Z,82.70
2022-10-19T03:22:59.986Z,82.64
2022-10-19T03:25:32.558Z,82.43
2022-10-19T03:28:05.022Z,82.33
2022-10-19T03:30:37.547Z,82.38
2022-10-19T03:33:10.054Z,82.13
2022-10-19T03:35:43.954Z,81.93
2022-10-19T03:38:16.965Z,82.13
2022-10-19T03:40:49.441Z,81.92
2022-10-19T03:43:21.931Z,82.07
2022-10-19T03:45:54.457Z,81.85
2022-10-19T03:48:26.956Z,82.19
2022-10-19T03:51:02.059Z,82.16
2022-10-19T03:53:34.795Z,81.81
2022-10-19T03:56:09.206Z,82.34
2022-10-19T03:58:42.693Z,82.37
2022-10-19T04:01:16.886Z,82.03
2022-10-19T04:03:53.736Z,82.23
2022-10-19T04:06:30.098Z,82.48
2022-10-19T04:09:03.447Z,82.34
2022-10-19T04:11:36.228Z,82.39
2022-10-19T04:16:46.923Z,81.95
2022-10-19T04:19:19.375Z,82.59
2022-10-19T04:21:53.175Z,82.49
2022-10-19T04:24:25.706Z,81.93
2022-10-19T04:26:58.300Z,82.44
2022-10-19T04:29:30.911Z,82.05
2022-10-19T04:32:03.531Z,82.51
2022-10-19T04:34:39.191Z,81.94
2022-10-19T04:37:14.114Z,82.46
2022-10-19T04:39:46.629Z,82.11
2022-10-19T04:42:19.130Z,81.83
2022-10-19T04:44:51.764Z,82.09
2022-10-19T04:47:24.396Z,81.88
2022-10-19T04:49:56.882Z,82.59
2022-10-19T04:52:31.399Z,82.46
2022-10-19T04:55:04.525Z,82.23
2022-10-19T04:57:37.247Z,82.20
2022-10-19T05:00:10.902Z,82.05
2022-10-19T05:02:44.667Z,82.74
2022-10-19T05:05:17.147Z,82.34
2022-10-19T05:07:51.091Z,82.68
2022-10-19T05:10:23.486Z,82.82
2022-10-19T05:12:56.033Z,82.68
2022-10-19T05:15:28.611Z,82.68
2022-10-19T05:18:01.352Z,82.45
2022-10-19T05:20:33.831Z,82.46
2022-10-19T05:23:07.650Z,82.37
2022-10-19T05:25:40.194Z,82.34
2022-10-19T05:28:12.950Z,82.52
2022-10-19T05:30:48.963Z,81.94
2022-10-19T05:33:21.750Z,82.67
2022-10-19T05:35:54.248Z,82.24
2022-10-19T05:38:29.969Z,82.41
2022-10-19T05:41:02.417Z,82.03
2022-10-19T05:43:35.158Z,81.93
2022-10-19T05:46:09.402Z,82.03
2022-10-19T05:48:42.179Z,82.46
2022-10-19T05:51:16.262Z,82.34
2022-10-19T05:53:50.787Z,81.81
2022-10-19T05:56:26.199Z,82.39
2022-10-19T05:59:00.888Z,81.83
2022-10-19T06:01:34.330Z,82.26
2022-10-19T06:04:07.524Z,81.98
2022-10-19T06:06:40.575Z,81.75
2022-10-19T06:09:14.662Z,82.02
2022-10-19T06:11:48.390Z,81.94
2022-10-19T06:14:20.853Z,82.05
2022-10-19T06:16:53.300Z,81.50
2022-10-19T06:19:25.933Z,81.21
2022-10-19T06:21:58.342Z,81.84
2022-10-19T06:24:32.345Z,81.88
2022-10-19T06:27:06.694Z,81.28
2022-10-19T06:29:39.351Z,81.68
2022-10-19T06:32:11.779Z,81.75
2022-10-19T06:34:44.215Z,81.48
2022-10-19T06:37:16.718Z,81.14
2022-10-19T06:39:50.816Z,81.46
2022-10-19T06:42:23.448Z,80.78
2022-10-19T06:44:55.950Z,80.82
2022-10-19T06:47:33.279Z,81.09
2022-10-19T06:50:07.584Z,80.44
2022-10-19T06:52:40.955Z,80.35
2022-10-19T06:55:15.267Z,80.69
2022-10-19T06:57:47.758Z,80.38
2022-10-19T07:00:20.423Z,80.72
2022-10-19T07:02:52.836Z,80.22
2022-10-19T07:05:25.370Z,80.02
2022-10-19T07:07:58.201Z,80.28
2022-10-19T07:10:32.208Z,80.38
2022-10-19T07:13:04.806Z,80.23
2022-10-19T07:15:37.332Z,80.27
2022-10-19T07:18:09.888Z,80.01
2022-10-19T07:20:42.530Z,79.79
2022-10-19T07:23:14.967Z,80.02
2022-10-19T07:25:48.839Z,80.10
2022-10-19T07:28:22.148Z,79.97
2022-10-19T07:30:54.732Z,80.14
2022-10-19T07:33:27.677Z,79.72
2022-10-19T07:36:01.403Z,79.74
2022-10-19T07:38:34.738Z,79.98
2022-10-19T07:41:13.635Z,79.66
2022-10-19T07:43:47.859Z,79.49
2022-10-19T07:46:21.966Z,79.06
2022-10-19T07:48:55.340Z,79.64
2022-10-19T07:54:01.693Z,79.25
2022-10-19T07:56:35.827Z,79.32
2022-10-19T07:59:08.611Z,79.14
2022-10-19T08:01:41.866Z,78.83
2022-10-19T08:04:55.415Z,78.53
2022-10-19T08:07:06.882Z,78.86
2022-10-19T08:09:54.853Z,78.53
2022-10-19T08:12:29.001Z,78.33
2022-10-19T08:15:01.482Z,78.83
2022-10-19T08:17:37.176Z,78.78
2022-10-19T08:20:11.236Z,78.36
2022-10-19T08:22:45.399Z,78.05
2022-10-19T08:25:17.861Z,78.09
2022-10-19T08:27:51.794Z,77.94
2022-10-19T08:30:24.309Z,78.07
2022-10-19T08:32:57.074Z,78.32
2022-10-19T08:35:30.575Z,78.48
2022-10-19T08:38:03.080Z,78.42
2022-10-19T08:40:35.667Z,78.12
2022-10-19T08:43:18.201Z,77.76
2022-10-19T08:45:59.056Z,77.54
2022-10-19T08:48:34.093Z,77.67
2022-10-19T08:51:09.424Z,77.89
2022-10-19T08:53:51.782Z,77.58
2022-10-19T08:56:51.343Z,77.05
2022-10-19T08:59:37.934Z,77.39
2022-10-19T09:02:16.546Z,77.13
2022-10-19T09:04:55.885Z,76.70
2022-10-19T09:07:31.327Z,76.44
2022-10-19T09:10:17.004Z,76.36
2022-10-19T09:12:58.544Z,76.17
2022-10-19T09:15:40.359Z,75.93
2022-10-19T09:18:19.028Z,75.97
2022-10-19T09:20:56.223Z,75.88
2022-10-19T09:23:34.882Z,75.33
2022-10-19T09:26:13.703Z,75.62
2022-10-19T09:28:52.441Z,75.55
2022-10-19T09:31:31.837Z,74.97
2022-10-19T09:34:11.069Z,75.14
2022-10-19T09:36:50.757Z,74.84
2022-10-19T09:39:27.032Z,74.74
2022-10-19T09:42:11.066Z,74.98
2022-10-19T09:44:44.326Z,74.78
2022-10-19T09:47:36.958Z,74.72
2022-10-19T09:50:17.670Z,74.15
2022-10-19T09:52:51.410Z,74.02
2022-10-19T09:55:29.077Z,74.30
2022-10-19T09:58:04.630Z,74.19
2022-10-19T10:00:43.738Z,74.38
2022-10-19T10:03:27.351Z,74.42
2022-10-19T10:06:04.305Z,73.96
2022-10-19T10:08:39.311Z,74.12
2022-10-19T10:11:14.925Z,74.24
2022-10-19T10:13:51.008Z,73.77
2022-10-19T10:16:29.749Z,73.64
2022-10-19T10:19:08.009Z,73.78
2022-10-19T10:21:48.228Z,73.05
2022-10-19T10:24:22.331Z,73.53
2022-10-19T10:26:57.091Z,73.82
2022-10-19T10:29:32.962Z,73.68
2022-10-19T10:32:07.970Z,73.19
2022-10-19T10:34:53.970Z,73.31
2022-10-19T10:37:33.124Z,73.77
2022-10-19T10:40:19.860Z,73.60
2022-10-19T10:42:56.769Z,73.86
2022-10-19T10:45:32.388Z,73.07
2022-10-19T10:48:17.851Z,73.53
2022-10-19T10:50:53.254Z,73.77
2022-10-19T10:53:35.488Z,73.11
2022-10-19T10:56:21.930Z,73.58
2022-10-19T10:59:02.141Z,73.50
2022-10-19T11:01:40.303Z,73.64
2022-10-19T11:04:20.096Z,73.44
2022-10-19T11:06:59.519Z,74.00
2022-10-19T11:09:37.307Z,73.47
2022-10-19T11:12:14.153Z,73.59
2022-10-19T11:14:51.407Z,73.50
2022-10-19T11:17:27.983Z,73.37
2022-10-19T11:20:00.506Z,73.30
2022-10-19T11:22:40.663Z,73.45
2022-10-19T11:25:26.709Z,73.18
2022-10-19T11:28:13.076Z,73.21
2022-10-19T11:30:57.769Z,73.16
2022-10-19T11:33:53.438Z,73.22
2022-10-19T11:36:42.091Z,72.90
2022-10-19T11:39:36.011Z,73.09
2022-10-19T11:42:19.703Z,73.21
2022-10-19T11:45:06.154Z,72.72
2022-10-19T11:47:54.078Z,73.02
2022-10-19T11:50:34.089Z,73.05
2022-10-19T11:53:12.785Z,72.53
2022-10-19T11:55:56.278Z,72.84
2022-10-19T11:58:40.452Z,72.52
2022-10-19T12:01:23.095Z,72.42
2022-10-19T12:04:14.401Z,72.43
2022-10-19T12:06:58.836Z,72.37
2022-10-19T12:09:45.697Z,73.07
2022-10-19T12:12:32.972Z,73.18
2022-10-19T12:15:26.353Z,72.68
2022-10-19T12:18:04.974Z,73.20
2022-10-19T12:20:42.799Z,72.88
2022-10-19T12:23:24.905Z,72.89
2022-10-19T12:26:00.364Z,72.44
2022-10-19T12:28:38.520Z,72.69
2022-10-19T12:31:11.954Z,72.81
2022-10-19T12:33:51.407Z,72.21
2022-10-19T12:36:32.678Z,72.53
2022-10-19T12:39:13.613Z,72.33
2022-10-19T12:41:52.722Z,71.69
2022-10-19T12:44:42.752Z,71.91
2022-10-19T12:47:21.089Z,71.83
2022-10-19T12:49:55.947Z,71.43
2022-10-19T12:52:38.438Z,72.11
2022-10-19T12:55:26.387Z,71.96
2022-10-19T12:58:02.723Z,71.60
2022-10-19T13:00:38.652Z,71.41
2022-10-19T13:03:23.954Z,71.28
2022-10-19T13:06:00.403Z,71.79
2022-10-19T13:08:39.719Z,71.78
2022-10-19T13:11:17.445Z,71.79
2022-10-19T13:14:05.859Z,72.09
2022-10-19T13:17:03.824Z,72.43
2022-10-19T13:19:37.092Z,71.85
2022-10-19T13:22:26.008Z,72.07
2022-10-19T13:25:28.150Z,72.20
2022-10-19T13:28:37.186Z,72.24
2022-10-19T13:31:25.176Z,72.45
2022-10-19T13:33:59.526Z,72.94
2022-10-19T13:36:39.006Z,73.00
2022-10-19T13:39:15.379Z,72.94
2022-10-19T13:41:53.804Z,72.65
2022-10-19T13:44:36.840Z,73.25
2022-10-19T13:47:34.668Z,73.41
2022-10-19T13:50:27.089Z,73.74
2022-10-19T13:53:24.010Z,74.18
2022-10-19T13:56:05.933Z,74.15
2022-10-19T13:59:11.530Z,74.26
2022-10-19T14:01:57.077Z,74.23
2022-10-19T14:04:43.064Z,74.25
2022-10-19T14:07:21.092Z,74.47
2022-10-19T14:10:06.750Z,74.34
2022-10-19T14:12:42.353Z,74.80
2022-10-19T14:15:22.718Z,74.87
2022-10-19T14:17:56.488Z,74.77
2022-10-19T14:20:31.917Z,74.89
2022-10-19T14:23:20.610Z,75.00
2022-10-19T14:25:55.580Z,75.14
2022-10-19T14:28:29.434Z,75.61
2022-10-19T14:31:04.814Z,75.77
2022-10-19T14:33:40.654Z,75.21
2022-10-19T14:36:18.018Z,75.28
2022-10-19T14:38:55.137Z,75.43
2022-10-19T14:41:32.054Z,76.17
2022-10-19T14:44:30.506Z,75.78
2022-10-19T14:47:06.957Z,75.84
2022-10-19T14:49:39.605Z,76.19
2022-10-19T14:52:17.473Z,76.12
2022-10-19T14:54:56.412Z,76.21
2022-10-19T14:57:32.915Z,76.27
2022-10-19T15:00:11.793Z,76.33
2022-10-19T15:02:48.224Z,76.37
2022-10-19T15:05:23.506Z,76.45
2022-10-19T15:07:56.706Z,76.92
2022-10-19T15:10:41.194Z,76.90
2022-10-19T15:13:24.105Z,77.13
2022-10-19T15:15:56.938Z,77.52
2022-10-19T15:18:48.787Z,76.64
2022-10-19T15:21:22.040Z,77.24
2022-10-19T15:23:54.670Z,76.97
2022-10-19T15:26:30.737Z,77.36
2022-10-19T15:29:21.844Z,77.17
2022-10-19T15:31:56.723Z,76.85
2022-10-19T15:34:30.797Z,76.87
2022-10-19T15:37:03.753Z,77.15
2022-10-19T15:39:40.965Z,77.05
2022-10-19T15:42:43.081Z,76.86
2022-10-19T15:45:31.354Z,77.29
2022-10-19T15:48:26.573Z,76.97
2022-10-19T15:50:59.166Z,77.33
2022-10-19T15:53:57.670Z,77.64
2022-10-19T15:56:32.155Z,77.50
2022-10-19T15:59:11.223Z,77.08
2022-10-19T16:01:52.459Z,77.51
2022-10-19T16:04:28.065Z,77.30
2022-10-19T16:07:03.463Z,77.71
2022-10-19T16:09:36.592Z,77.32
2022-10-19T16:12:11.054Z,76.99
2022-10-19T16:14:45.210Z,77.25
2022-10-19T16:17:17.830Z,77.24
2022-10-19T16:19:50.612Z,77.58
2022-10-19T16:22:23.102Z,77.57
2022-10-19T16:24:55.783Z,77.62
2022-10-19T16:27:36.058Z,77.43
2022-10-19T16:30:12.842Z,77.72
2022-10-19T16:32:48.874Z,77.62
2022-10-19T16:35:28.467Z,77.85
2022-10-19T16:38:01.680Z,77.74
2022-10-19T16:40:45.462Z,77.55
2022-10-19T16:43:21.348Z,77.73
2022-10-19T16:45:56.347Z,77.81
2022-10-19T16:48:32.461Z,77.70
2022-10-19T16:51:26.450Z,77.68
2022-10-19T16:54:02.674Z,77.47
2022-10-19T16:56:49.681Z,77.74
2022-10-19T16:59:29.244Z,77.89
2022-10-19T17:02:06.680Z,77.76
2022-10-19T17:04:39.723Z,78.10
2022-10-19T17:07:13.248Z,78.10
2022-10-19T17:09:47.199Z,78.43
2022-10-19T17:12:22.687Z,77.95
2022-10-19T17:15:11.583Z,78.00
2022-10-19T17:17:58.121Z,78.24
2022-10-19T17:20:33.886Z,78.06
2022-10-19T17:23:12.210Z,78.13
2022-10-19T17:29:07.634Z,78.22
2022-10-19T17:31:42.635Z,78.38
2022-10-19T17:34:31.770Z,78.01
2022-10-19T17:50:39.702Z,78.25
2022-10-19T17:53:12.958Z,78.20
2022-10-19T17:55:46.630Z,78.34
2022-10-19T17:58:54.993Z,78.40
2022-10-19T18:01:30.817Z,78.03
2022-10-19T18:07:29.458Z,78.18
2022-10-19T18:10:02.085Z,78.19
2022-10-19T18:12:35.720Z,78.37
2022-10-19T18:15:08.970Z,77.89
2022-10-19T18:17:41.615Z,77.88
2022-10-19T18:20:14.107Z,78.02
2022-10-19T18:22:51.416Z,78.11
2022-10-19T18:25:42.265Z,78.54
2022-10-19T18:28:16.460Z,78.12
2022-10-19T18:30:49.192Z,78.59
2022-10-19T18:33:23.528Z,78.27
2022-10-19T18:35:58.366Z,78.57
2022-10-19T18:38:32.384Z,78.44
2022-10-19T18:41:06.177Z,78.64
2022-10-19T18:43:39.416Z,78.89
2022-10-19T18:46:11.934Z,78.37
2022-10-19T18:48:44.776Z,78.61
2022-10-19T18:51:18.373Z,78.50
2022-10-19T18:53:55.628Z,78.79
2022-10-19T18:56:29.580Z,78.52
2022-10-19T18:59:02.439Z,78.83
2022-10-19T19:01:35.143Z,78.41
2022-10-19T19:04:10.045Z,78.84
2022-10-19T19:06:42.578Z,78.96
2022-10-19T19:09:17.652Z,78.75
2022-10-19T19:11:51.560Z,78.83
2022-10-19T19:14:26.507Z,79.04
2022-10-19T19:16:58.942Z,79.34
2022-10-19T19:19:31.474Z,79.22
2022-10-19T19:22:08.588Z,79.54
2022-10-19T19:24:43.056Z,79.85
2022-10-19T19:27:15.586Z,79.46
2022-10-19T19:29:49.182Z,79.62
2022-10-19T19:32:21.629Z,79.61
2022-10-19T19:34:54.965Z,79.49
2022-10-19T19:37:27.564Z,79.91
2022-10-19T19:40:01.472Z,79.51
2022-10-19T19:42:34.695Z,79.79
2022-10-19T19:45:08.664Z,79.90
2022-10-19T19:47:41.079Z,79.60
2022-10-19T19:50:13.667Z,79.48
2022-10-19T19:52:46.121Z,79.50
2022-10-19T19:55:20.235Z,79.66
2022-10-19T19:57:54.304Z,79.57
2022-10-19T20:00:26.907Z,79.69
2022-10-19T20:02:59.874Z,79.67
2022-10-19T20:05:33.119Z,79.22
2022-10-19T20:08:05.843Z,79.20
2022-10-19T20:10:40.500Z,79.32
2022-10-19T20:13:12.983Z,79.68
2022-10-19T20:15:45.727Z,79.21
2022-10-19T20:18:18.077Z,79.40
2022-10-19T20:20:50.643Z,79.19
2022-10-19T20:23:23.057Z,79.46
2022-10-19T20:25:57.184Z,79.30
2022-10-19T20:28:32.833Z,79.25
2022-10-19T20:31:08.534Z,79.57
2022-10-19T20:33:42.712Z,79.14
2022-10-19T20:36:17.106Z,79.10
2022-10-19T20:38:51.410Z,79.07
2022-10-19T20:41:27.940Z,79.48
2022-10-19T20:44:00.392Z,79.15
2022-10-19T20:46:33.230Z,79.08
2022-10-19T20:49:05.805Z,78.76
2022-10-19T20:51:38.973Z,79.06
2022-10-19T20:54:15.094Z,79.15
2022-10-19T20:56:49.219Z,78.98
2022-10-19T20:59:25.285Z,78.78
2022-10-19T21:01:58.135Z,78.75
2022-10-19T21:04:30.654Z,79.06
2022-10-19T21:07:05.160Z,78.95
2022-10-19T21:09:37.668Z,79.16
2022-10-19T21:12:11.587Z,78.83
2022-10-19T21:14:44.007Z,78.74
2022-10-19T21:17:16.721Z,78.93
2022-10-19T21:19:49.088Z,78.88
2022-10-19T21:22:21.664Z,79.14
2022-10-19T21:24:54.078Z,78.89
2022-10-19T21:27:28.299Z,79.02
2022-10-19T21:30:00.718Z,78.71
2022-10-19T21:32:33.295Z,78.88
2022-10-19T21:35:06.229Z,78.52
2022-10-19T21:37:39.017Z,78.86
2022-10-19T21:40:11.745Z,78.74
2022-10-19T21:42:46.451Z,78.66
2022-10-19T21:45:29.946Z,78.75
2022-10-19T21:48:03.447Z,78.89
2022-10-19T21:50:35.784Z,78.78
2022-10-19T21:53:08.231Z,78.74
2022-10-19T21:55:40.596Z,78.80
2022-10-19T21:58:14.970Z,78.71
2022-10-19T22:00:47.874Z,78.42
2022-10-19T22:03:20.411Z,78.76
2022-10-19T22:05:53.225Z,78.67
2022-10-19T22:08:26.098Z,78.82
2022-10-19T22:10:58.622Z,78.81
2022-10-19T22:13:32.775Z,78.66
2022-10-19T22:16:06.394Z,78.76
2022-10-19T22:18:39.110Z,79.14
2022-10-19T22:21:13.304Z,78.53
2022-10-19T22:23:45.823Z,78.47
2022-10-19T22:26:20.122Z,78.54
2022-10-19T22:28:55.969Z,78.73
2022-10-19T22:31:30.054Z,78.59
2022-10-19T22:34:03.926Z,78.86
2022-10-19T22:36:36.404Z,78.81
2022-10-19T22:39:09.388Z,78.75
2022-10-19T22:41:41.779Z,78.43
2022-10-19T22:44:15.769Z,78.24
2022-10-19T22:46:48.212Z,78.42
2022-10-19T22:49:20.892Z,78.11
2022-10-19T22:51:53.260Z,78.45
2022-10-19T22:54:25.815Z,78.45
2022-10-19T22:56:58.253Z,78.29
2022-10-19T22:59:33.312Z,78.21
2022-10-19T23:02:05.920Z,78.59
2022-10-19T23:04:38.516Z,78.21
2022-10-19T23:09:48.454Z,78.44
2022-10-19T23:12:21.083Z,78.40
2022-10-19T23:14:55.069Z,78.36
2022-10-19T23:17:27.560Z,78.34
2022-10-19T23:20:00.453Z,78.30
2022-10-19T23:22:32.852Z,78.26
2022-10-19T23:25:06.551Z,78.89
2022-10-19T23:29:14.474Z,78.54
2022-10-19T23:31:38.420Z,78.40
2022-10-19T23:34:11.190Z,78.65
2022-10-19T23:36:43.645Z,78.42
2022-10-19T23:39:16.165Z,78.63
2022-10-19T23:41:48.931Z,78.59
2022-10-19T23:44:21.475Z,78.21
2022-10-19T23:46:55.409Z,78.60
2022-10-19T23:49:27.875Z,78.63
2022-10-19T23:52:00.421Z,78.67
2022-10-19T23:54:33.033Z,78.72
2022-10-19T23:57:05.848Z,78.91
2022-10-19T23:59:38.312Z,78.60
